CheckWX is a tool to help pilots better visualize weather data.  It is not intended as a substitute for an official pre-flight weather briefing.

08:27:01 UTC

KIRK METAR
Kirksville Regional Airport
Kirksville, Missouri, USA
Current

32 mins ago

KIRK 220755Z AUTO 05006KT 9SM CLR M03/M05 A3033 RMK AO2 SLP284 T10281050
Observed
Feb-22 @ 07:55 UTC
Wind
  • 050° at 6 KTS
Visibility
9 SM
Flight Rules
VFR
Cloud Levels
  • Clear skies
Temperature
-3°C / 27°F
Dewpoint
-5°C / 23°F
Humidity
86%
Altimeter
30.33" Hg
Pressure
1028.4 hPa
Previous

2 hours ago

KIRK 220655Z AUTO 05007KT 9SM FEW120 M02/M04 A3033 RMK AO2 SLP282 T10221044
Observed
Feb-22 @ 06:55 UTC
Wind
  • 050° at 7 KTS
Visibility
9 SM
Flight Rules
VFR
Cloud Levels
  • Few at 12,000' AGL
Temperature
-2°C / 28°F
Dewpoint
-4°C / 25°F
Humidity
86%
Altimeter
30.33" Hg
Pressure
1028.2 hPa
Previous

3 hours ago

KIRK 220555Z AUTO 04007KT 8SM OVC120 M02/M04 A3031 RMK AO2 SLP277 T10221044 10011 21039 400391067 53017
Observed
Feb-22 @ 05:55 UTC
Wind
  • 040° at 7 KTS
Visibility
8 SM
Flight Rules
VFR
Cloud Levels
  • Overcast at 12,000' AGL
Temperature
-2°C / 28°F
Dewpoint
-4°C / 25°F
Humidity
86%
Altimeter
30.31" Hg
Pressure
1027.7 hPa